createdAt,value
2023-04-23T00:02:07.029Z,97400
2023-04-23T00:14:06.985Z,97410
2023-04-23T00:26:07.006Z,97410
2023-04-23T00:38:07.094Z,97410
2023-04-23T00:50:07.012Z,97400
2023-04-23T01:02:07.142Z,97410
2023-04-23T01:14:07.004Z,97400
2023-04-23T01:26:06.985Z,97400
2023-04-23T01:38:07.000Z,97400
2023-04-23T01:50:06.997Z,97400
2023-04-23T02:02:07.077Z,97400
2023-04-23T02:14:06.986Z,97410
2023-04-23T02:26:07.054Z,97400
2023-04-23T02:38:07.028Z,97410
2023-04-23T02:50:07.015Z,97410
2023-04-23T03:02:07.126Z,97410
2023-04-23T03:14:07.101Z,97420
2023-04-23T03:26:07.078Z,97410
2023-04-23T03:38:07.104Z,97420
2023-04-23T03:50:07.111Z,97410
2023-04-23T04:02:07.162Z,97400
2023-04-23T04:14:06.987Z,97410
2023-04-23T04:26:06.994Z,97410
2023-04-23T04:38:07.098Z,97410
2023-04-23T04:50:06.986Z,97400
2023-04-23T05:02:07.055Z,97400
2023-04-23T05:14:07.018Z,97400
2023-04-23T05:26:06.990Z,97410
2023-04-23T05:38:06.990Z,97430
2023-04-23T05:50:07.098Z,97420
2023-04-23T06:02:07.210Z,97400
2023-04-23T06:14:07.080Z,97400
2023-04-23T06:26:07.036Z,97420
2023-04-23T06:38:07.087Z,97430
2023-04-23T06:50:07.061Z,97440
2023-04-23T07:02:07.070Z,97420
2023-04-23T07:14:07.060Z,97400
2023-04-23T07:26:07.124Z,97400
2023-04-23T07:38:06.977Z,97410
2023-04-23T07:50:07.081Z,97400
2023-04-23T08:02:07.176Z,97410
2023-04-23T08:14:07.108Z,97410
2023-04-23T08:26:07.091Z,97400
2023-04-23T08:38:07.093Z,97390
2023-04-23T08:50:07.131Z,97400
2023-04-23T09:02:07.140Z,97390
2023-04-23T09:14:06.994Z,97380
2023-04-23T09:26:07.096Z,97380
2023-04-23T09:38:07.069Z,97360
2023-04-23T09:50:06.991Z,97360
2023-04-23T10:02:07.277Z,97370
2023-04-23T10:14:07.006Z,97360
2023-04-23T10:26:07.612Z,97350
2023-04-23T10:38:07.300Z,97360
2023-04-23T10:50:06.991Z,97350
2023-04-23T11:14:06.993Z,97320
2023-04-23T11:38:07.000Z,97290
2023-04-23T11:50:06.992Z,97280
2023-04-23T12:02:07.101Z,97270
2023-04-23T12:14:07.114Z,97240
2023-04-23T12:26:06.985Z,97220
2023-04-23T12:38:07.008Z,97210
2023-04-23T12:50:07.522Z,97190
2023-04-23T13:02:07.283Z,97180
2023-04-23T14:38:07.113Z,97020
2023-04-23T15:18:19.569Z,96950
2023-04-23T15:30:20.557Z,96950
2023-04-23T15:48:24.522Z,96950
2023-04-23T16:00:24.410Z,96940
2023-04-23T16:12:24.426Z,97000
2023-04-23T16:24:24.522Z,97010
2023-04-23T16:36:24.418Z,96990
2023-04-23T16:48:24.526Z,96960
2023-04-23T17:00:24.524Z,96950
2023-04-23T17:12:24.538Z,96940
2023-04-23T17:24:25.295Z,96890
2023-04-23T17:36:24.535Z,96880
2023-04-23T17:48:24.533Z,96850
2023-04-23T18:00:24.520Z,96860
2023-04-23T18:12:24.423Z,96840
2023-04-23T18:24:24.519Z,96840
2023-04-23T18:36:24.529Z,96830
2023-04-23T18:48:24.532Z,96830
2023-04-23T19:00:24.516Z,96850
2023-04-23T19:12:24.419Z,96840
2023-04-23T19:24:24.483Z,96840
2023-04-23T19:36:24.526Z,96870
2023-04-23T19:48:24.517Z,96900
2023-04-23T20:00:24.420Z,96910
2023-04-23T20:12:24.733Z,96920
2023-04-23T20:24:24.550Z,96930
2023-04-23T20:36:24.424Z,96920
2023-04-23T20:48:25.843Z,96900
2023-04-23T21:00:24.440Z,96890
2023-04-23T21:12:25.402Z,96890
2023-04-23T21:24:24.427Z,96870
2023-04-23T21:36:24.422Z,96870
2023-04-23T21:48:24.416Z,96870
2023-04-23T22:00:24.544Z,96890
2023-04-23T22:12:24.420Z,96880
2023-04-23T22:24:24.537Z,96890
2023-04-23T22:36:24.420Z,96880
2023-04-23T22:48:24.427Z,96880
2023-04-23T23:00:24.470Z,96870
2023-04-23T23:12:24.517Z,96870
2023-04-23T23:24:24.523Z,96870
2023-04-23T23:36:24.532Z,96860
2023-04-23T23:48:24.413Z,96820
